NCAR-RAP Real-Time Weather Data

Output produced by METARs form (08 May 2021  16:19 UTC)
found at http://weather.rap.ucar.edu/surface/
 
KFFC 081553Z AUTO VRB06KT 10SM CLR 22/03 A3017 RMK AO2 SLP215 T02170033
KFFC 081453Z AUTO VRB03KT 10SM CLR 19/08 A3017 RMK AO2 SLP214 T01940078 53008
KFFC 081353Z AUTO 00000KT 10SM CLR 15/08 A3016 RMK AO2 SLP214 T01500083
KFFC 081253Z AUTO 00000KT 10SM SCT120 13/08 A3015 RMK AO2 SLP207 T01280078
KFFC 081153Z AUTO 00000KT 10SM CLR 08/07 A3014 RMK AO2 SLP207 T00830072 10083 20061 51009
KFFC 081053Z AUTO 00000KT 7SM CLR 07/06 A3013 RMK AO2 SLP202 T00670056
KFFC 080953Z AUTO 00000KT 9SM FEW120 06/06 A3013 RMK AO2 SLP204 T00610056
KFFC 080853Z AUTO 00000KT 9SM CLR 06/06 A3011 RMK AO2 SLP198 T00610056 55001
KFFC 080753Z AUTO 00000KT 10SM CLR 07/06 A3011 RMK AO2 SLP195 T00670056
KFFC 080653Z AUTO 00000KT 10SM CLR 07/06 A3011 RMK AO2 SLP196 T00720061
KFFC 080553Z AUTO 00000KT 10SM CLR 08/06 A3012 RMK AO2 SLP198 T00780061 10183 20072 53004
KFFC 080453Z AUTO 00000KT 10SM CLR 08/06 A3011 RMK AO2 SLP195 T00830061 402060078
KFFC 080353Z AUTO 00000KT 10SM CLR 09/07 A3010 RMK AO2 SLP192 T00890067
KFFC 080253Z AUTO 00000KT 10SM CLR 09/07 A3010 RMK AO2 SLP195 T00940067 52011
KFFC 080153Z AUTO 00000KT 10SM CLR 12/06 A3009 RMK AO2 SLP191 T01170061
KFFC 080053Z AUTO 27004KT 10SM CLR 16/04 A3008 RMK AO2 SLP186 T01560039